Terminal Aerodrome Forecast
Issued by NWS

Home | Current Version | Previous Version | Text Only | Print | Product List | Glossary On
Versions: 1 2 3 4 5 6 7 8 9 10 11 12 13 14 15 16 17 18 19 20 21 22 23 24 25 26 27 28 29 30 31 32 33 34 35 36 37
000
FTUS43 KAPX 172132 AAA
TAFPLN
TAF AMD
KPLN 172132Z 1722/1818 32011KT 1 1/2SM -SHSN SCT015 OVC023
     FM180100 32008KT P6SM OVC025
     FM181300 33004KT P6SM BKN028=

USA.gov is the U.S. government's official web portal to all federal, state and local government web resources and services.